Time;durP1;ratioP1;P1;durP2;ratioP2;P2;SDS_P1;SDS_P2;PMS_P1;PMS_P2;Temp;Humidity;BMP_temperature;BMP_pressure;BME280_temperature;BME280_humidity;BME280_pressure;Samples;Min_cycle;Max_cycle;Signal;HPM_P1;HPM_P2
2022/09/03 00:00:04;;;;;;;15.13;8.57;;;;;;;18.58;66.77;99432.69;5008502;28;20399;-44
2022/09/03 00:11:05;;;;;;;14.18;8.98;;;;;;;18.62;65.88;99428.19;5037533;28;20411;-40
2022/09/03 00:13:36;;;;;;;15.15;9.02;;;;;;;18.63;66.29;99435.97;5000827;28;21448;-40
2022/09/03 00:16:10;;;;;;;14.23;8.45;;;;;;;18.60;67.02;99437.88;4997520;28;20046;-40
2022/09/03 00:18:50;;;;;;;16.88;9.65;;;;;;;18.56;66.67;99438.94;4998866;28;20133;-40
2022/09/03 00:21:30;;;;;;;14.55;8.88;;;;;;;18.55;66.26;99438.09;5001978;28;20045;-41
2022/09/03 00:23:59;;;;;;;17.80;8.43;;;;;;;18.54;66.61;99438.16;5001185;28;20081;-42
2022/09/03 00:26:30;;;;;;;17.88;9.55;;;;;;;18.55;66.48;99435.47;4998173;28;20494;-44
2022/09/03 00:29:05;;;;;;;14.35;9.02;;;;;;;18.52;66.61;99440.00;4987009;28;20056;-41
2022/09/03 00:31:37;;;;;;;16.60;9.80;;;;;;;18.47;66.39;99435.81;4993895;28;20061;-43
2022/09/03 00:34:20;;;;;;;18.05;10.25;;;;;;;18.41;66.57;99435.25;5012881;28;20402;-41
2022/09/03 00:36:47;;;;;;;17.83;10.07;;;;;;;18.40;66.73;99431.75;5006170;28;20062;-42
2022/09/03 00:39:17;;;;;;;18.20;11.02;;;;;;;18.40;66.90;99439.63;4999421;28;20100;-46
2022/09/03 00:55:31;;;;;;;21.60;12.30;;;;;;;18.40;66.81;99434.38;5074427;27;20391;-41
2022/09/03 00:58:19;;;;;;;20.83;12.20;;;;;;;18.30;67.04;99438.38;5013680;28;20445;-42
2022/09/03 01:00:46;;;;;;;21.85;12.07;;;;;;;18.30;67.29;99427.88;5028792;28;20073;-41
2022/09/03 01:03:53;;;;;;;18.02;10.60;;;;;;;18.21;67.40;99422.09;5013899;28;20037;-42
2022/09/03 01:06:39;;;;;;;17.52;10.32;;;;;;;18.21;66.71;99427.34;5036104;28;20049;-40
2022/09/03 01:31:25;;;;;;;19.48;11.52;;;;;;;17.86;66.14;99432.34;5052403;27;20753;-42
2022/09/03 01:34:19;;;;;;;18.42;11.00;;;;;;;17.76;66.70;99428.44;5001088;28;20077;-40
2022/09/03 01:37:00;;;;;;;23.33;12.18;;;;;;;17.78;66.53;99418.72;5003707;28;22085;-41
2022/09/03 01:50:16;;;;;;;27.58;13.23;;;;;;;17.68;66.99;99419.13;5073239;27;20415;-41
2022/09/03 01:53:24;;;;;;;25.38;13.50;;;;;;;17.59;68.16;99419.50;5054854;28;20052;-41
2022/09/03 02:01:20;;;;;;;26.85;15.32;;;;;;;17.57;67.21;99427.41;5108621;27;20403;-42
2022/09/03 02:03:49;;;;;;;28.23;14.57;;;;;;;17.52;67.22;99423.28;5028145;28;20444;-42
2022/09/03 02:06:19;;;;;;;30.75;15.98;;;;;;;17.50;67.08;99431.22;5026856;28;20057;-40
2022/09/03 02:08:46;;;;;;;25.98;15.60;;;;;;;17.46;67.96;99433.09;5059664;28;21342;-41
2022/09/03 02:11:13;;;;;;;27.00;17.25;;;;;;;17.45;68.13;99441.03;5073667;28;20044;-41
2022/09/03 02:13:44;;;;;;;31.08;16.60;;;;;;;17.44;67.15;99429.72;5074224;28;20056;-42
2022/09/03 02:18:52;;;;;;;27.73;14.45;;;;;;;17.46;68.28;99425.25;5048621;28;20401;-43
2022/09/03 02:21:21;;;;;;;27.15;14.73;;;;;;;17.46;68.41;99425.25;5013841;28;20093;-41
2022/09/03 02:23:48;;;;;;;25.02;14.00;;;;;;;17.50;68.42;99430.38;5012559;28;20541;-41
2022/09/03 02:26:20;;;;;;;33.03;16.27;;;;;;;17.54;69.06;99421.47;5012954;28;20402;-43
2022/09/03 02:28:48;;;;;;;38.00;18.67;;;;;;;17.55;68.57;99423.16;5013611;28;21359;-40
2022/09/03 02:31:15;;;;;;;38.65;18.83;;;;;;;17.57;68.60;99418.72;5013245;28;20081;-42
2022/09/03 02:33:46;;;;;;;40.60;18.77;;;;;;;17.58;69.29;99417.81;5021105;28;20077;-40
2022/09/03 02:36:15;;;;;;;33.63;17.08;;;;;;;17.58;68.72;99408.19;5014483;28;20648;-43
2022/09/03 02:38:44;;;;;;;36.25;16.55;;;;;;;17.61;68.33;99407.22;5008695;28;20173;-41
2022/09/03 02:41:12;;;;;;;33.63;17.10;;;;;;;17.63;69.41;99401.91;5016039;28;20103;-39
2022/09/03 02:46:31;;;;;;;45.85;25.33;;;;;;;18.02;69.22;99395.00;5079441;27;20392;-41
2022/09/03 02:48:58;;;;;;;38.40;21.60;;;;;;;17.78;70.10;99397.78;5041285;28;21261;-45
2022/09/03 02:51:24;;;;;;;40.88;21.27;;;;;;;17.70;69.94;99391.09;5035453;28;20051;-46
2022/09/03 02:53:52;;;;;;;32.85;17.25;;;;;;;17.63;69.40;99381.78;5068695;28;20448;-43
2022/09/03 02:56:18;;;;;;;33.90;17.98;;;;;;;17.59;69.87;99382.84;5053406;28;20053;-42
2022/09/03 02:58:45;;;;;;;35.58;19.73;;;;;;;17.55;70.00;99381.28;5067679;28;20090;-42
2022/09/03 03:01:12;;;;;;;33.58;19.63;;;;;;;17.54;69.52;99374.34;5060840;28;20040;-42
2022/09/03 03:03:50;;;;;;;35.45;19.30;;;;;;;17.51;69.45;99380.56;5064685;28;20057;-42
2022/09/03 03:06:19;;;;;;;36.63;19.98;;;;;;;17.51;69.58;99390.16;5068077;28;20053;-44
2022/09/03 03:08:48;;;;;;;35.67;19.80;;;;;;;17.51;69.59;99395.41;5073674;28;20069;-40
2022/09/03 03:11:17;;;;;;;36.65;21.15;;;;;;;17.47;69.79;99390.28;5080329;28;20139;-41
2022/09/03 03:13:45;;;;;;;37.55;19.67;;;;;;;17.46;69.35;99388.59;5084864;28;20039;-43
2022/09/03 03:16:13;;;;;;;43.15;21.98;;;;;;;17.42;70.23;99389.66;5081947;28;20047;-42
2022/09/03 03:18:40;;;;;;;41.38;20.63;;;;;;;17.40;69.87;99383.66;5068227;28;20168;-43
2022/09/03 03:21:10;;;;;;;39.78;21.40;;;;;;;17.40;70.11;99374.94;5087095;28;20086;-42
2022/09/03 03:23:38;;;;;;;35.13;17.48;;;;;;;17.39;69.97;99373.25;5071166;28;20690;-42
2022/09/03 03:26:08;;;;;;;39.47;20.20;;;;;;;17.38;70.09;99380.22;5076518;28;20048;-42
2022/09/03 03:28:35;;;;;;;39.75;20.98;;;;;;;17.36;69.96;99375.97;5087372;28;20102;-42
2022/09/03 03:31:20;;;;;;;44.42;22.40;;;;;;;17.28;69.81;99379.75;5058601;28;20060;-40
2022/09/03 03:33:52;;;;;;;41.88;21.67;;;;;;;17.27;71.16;99382.44;5048134;28;20056;-43
2022/09/03 03:36:20;;;;;;;42.85;22.98;;;;;;;17.24;70.33;99374.72;5073751;27;20055;-41
2022/09/03 03:38:47;;;;;;;43.22;21.45;;;;;;;17.21;70.30;99373.94;5074913;27;20055;-41
2022/09/03 03:44:00;;;;;;;48.40;20.77;;;;;;;17.13;70.71;99369.91;5073452;27;20416;-43
2022/09/03 03:46:31;;;;;;;45.42;21.15;;;;;;;17.13;70.39;99362.94;5081085;28;20114;-41
2022/09/03 03:48:58;;;;;;;42.70;20.42;;;;;;;17.13;70.97;99365.56;5049471;28;20063;-43
2022/09/03 03:51:25;;;;;;;47.38;21.13;;;;;;;17.12;70.43;99363.81;5060435;28;20044;-45
2022/09/03 03:53:55;;;;;;;44.60;20.17;;;;;;;17.08;71.24;99357.88;5062657;27;20060;-44
2022/09/03 03:56:23;;;;;;;43.50;19.30;;;;;;;17.07;70.42;99356.19;5064911;28;20036;-42
2022/09/03 03:58:51;;;;;;;43.92;19.88;;;;;;;17.07;70.56;99355.31;5071554;28;20041;-41
2022/09/03 04:01:21;;;;;;;37.88;19.80;;;;;;;17.05;70.63;99354.50;5061237;28;20045;-40
2022/09/03 04:03:48;;;;;;;;;;;;;;;16.85;70.70;99360.56;5082816;28;20036;-44
2022/09/03 04:06:17;;;;;;;40.35;19.08;;;;;;;16.99;71.24;99362.59;5073754;28;19924;-41
2022/09/03 04:08:47;;;;;;;44.40;21.40;;;;;;;16.99;71.45;99362.59;5064135;28;20053;-42
2022/09/03 04:11:18;;;;;;;46.72;20.52;;;;;;;16.99;70.98;99362.59;5059591;28;20452;-43
2022/09/03 04:13:46;;;;;;;49.53;22.73;;;;;;;16.98;70.76;99371.38;5059768;28;20570;-41
2022/09/03 04:16:17;;;;;;;44.67;21.25;;;;;;;16.99;71.33;99373.06;5061266;28;20119;-42
2022/09/03 04:18:45;;;;;;;47.75;20.70;;;;;;;16.96;70.82;99380.13;5058879;28;20045;-41
2022/09/03 04:21:15;;;;;;;47.58;21.58;;;;;;;16.95;70.94;99373.19;5083014;28;20040;-41
2022/09/03 04:23:44;;;;;;;50.83;22.98;;;;;;;16.92;71.31;99373.31;5056513;28;20044;-40
2022/09/03 04:26:14;;;;;;;49.83;23.02;;;;;;;16.89;71.68;99373.41;5059263;28;20047;-43
2022/09/03 04:28:41;;;;;;;49.67;22.10;;;;;;;16.87;72.14;99370.03;5053276;28;20052;-42
2022/09/03 04:31:10;;;;;;;49.63;23.00;;;;;;;16.85;71.89;99371.84;5061919;28;20043;-41
2022/09/03 04:33:38;;;;;;;50.90;22.73;;;;;;;16.86;71.57;99362.25;5061156;28;20103;-42
2022/09/03 04:36:08;;;;;;;46.10;21.48;;;;;;;16.86;71.81;99363.09;5042007;28;20049;-40
2022/09/03 04:38:38;;;;;;;53.53;23.02;;;;;;;16.86;71.64;99360.50;5058997;28;20053;-45
2022/09/03 04:41:06;;;;;;;48.65;22.60;;;;;;;16.88;71.75;99360.44;5059308;28;20045;-41
2022/09/03 04:43:34;;;;;;;51.67;23.85;;;;;;;16.90;71.74;99374.28;5054789;28;20063;-43
2022/09/03 04:46:03;;;;;;;53.10;22.92;;;;;;;16.91;71.77;99376.84;5058198;28;20053;-42
2022/09/03 04:48:31;;;;;;;;;;;;;;;16.75;71.27;99375.75;5078446;28;20059;-40
2022/09/03 04:51:16;;;;;;;50.20;22.38;;;;;;;16.84;70.86;99367.53;5052780;28;19932;-41
2022/09/03 04:53:45;;;;;;;51.42;23.30;;;;;;;16.91;71.30;99365.50;5050560;28;20500;-43
2022/09/03 04:58:54;;;;;;;46.45;22.38;;;;;;;16.87;70.78;99370.03;5024424;28;20415;-43
2022/09/03 05:01:22;;;;;;;52.15;23.40;;;;;;;16.89;71.18;99362.97;4984240;28;20058;-43
2022/09/03 05:03:51;;;;;;;57.83;23.83;;;;;;;16.87;71.08;99364.81;5015321;28;20078;-42
2022/09/03 05:06:18;;;;;;;55.90;23.80;;;;;;;16.86;71.78;99363.09;4983316;28;20054;-40
2022/09/03 05:08:48;;;;;;;55.25;23.92;;;;;;;16.85;72.07;99360.56;4987777;28;20058;-43
2022/09/03 05:11:16;;;;;;;56.72;24.75;;;;;;;16.85;71.82;99366.63;4975778;28;20047;-42
2022/09/03 05:13:47;;;;;;;55.00;24.38;;;;;;;16.89;71.50;99365.56;4980138;28;20047;-42
2022/09/03 05:16:15;;;;;;;56.65;24.58;;;;;;;16.90;71.69;99375.16;4980704;28;20050;-41
2022/09/03 05:18:43;;;;;;;56.45;25.77;;;;;;;16.91;71.63;99360.28;4981128;28;20146;-42
2022/09/03 05:21:12;;;;;;;55.47;25.13;;;;;;;16.93;72.35;99363.72;4980404;28;20141;-42
2022/09/03 05:23:41;;;;;;;58.05;25.55;;;;;;;16.94;71.68;99365.41;4977066;28;20629;-42
2022/09/03 05:26:14;;;;;;;56.65;24.40;;;;;;;16.95;72.38;99362.72;4964646;28;20478;-43
2022/09/03 05:28:42;;;;;;;59.25;25.55;;;;;;;16.98;72.32;99366.16;4977324;28;20062;-45
2022/09/03 05:31:12;;;;;;;54.75;24.42;;;;;;;17.00;72.24;99364.31;4978691;28;20046;-42
2022/09/03 05:33:41;;;;;;;60.67;26.08;;;;;;;17.00;72.38;99370.41;4980619;28;20082;-42
2022/09/03 05:36:10;;;;;;;;;;;;;;;16.83;72.05;99368.47;4980584;28;20042;-40
2022/09/03 05:38:37;;;;;;;60.13;25.25;;;;;;;16.98;71.70;99363.53;4979266;28;19957;-43
2022/09/03 05:41:07;;;;;;;68.60;26.88;;;;;;;17.00;71.87;99369.53;4982599;28;20043;-45
2022/09/03 05:43:34;;;;;;;62.08;25.42;;;;;;;17.00;71.87;99359.06;4976143;28;20058;-41
2022/09/03 05:46:04;;;;;;;65.50;26.55;;;;;;;17.02;72.71;99367.72;4980140;28;20786;-40
2022/09/03 05:48:33;;;;;;;60.92;26.80;;;;;;;17.03;72.41;99366.81;4978410;28;20050;-41
2022/09/03 05:51:03;;;;;;;62.10;25.33;;;;;;;17.04;72.18;99369.34;4976288;28;20046;-42
2022/09/03 05:53:30;;;;;;;;;;;;;;;16.92;72.92;99373.31;4975959;28;20042;-40
2022/09/03 05:55:58;;;;;;;57.13;24.05;;;;;;;17.07;72.37;99376.25;4979036;28;20009;-41
2022/09/03 05:58:33;;;;;;;62.08;26.90;;;;;;;17.13;72.52;99375.16;4979541;28;20054;-41
2022/09/03 06:01:09;;;;;;;62.42;26.98;;;;;;;17.16;72.51;99378.47;4976247;28;20054;-41
2022/09/03 06:03:36;;;;;;;;;;;;;;;17.03;72.73;99380.75;4957957;28;20050;-42
2022/09/03 06:06:04;;;;;;;63.67;25.70;;;;;;;17.15;72.80;99383.78;4979211;28;19922;-42
2022/09/03 06:08:31;;;;;;;64.10;27.65;;;;;;;17.17;73.06;99382.81;4972548;28;20053;-42
2022/09/03 06:10:59;;;;;;;64.22;27.52;;;;;;;17.19;72.74;99374.91;4964745;28;20101;-42
2022/09/03 06:13:26;;;;;;;70.22;28.77;;;;;;;17.20;72.63;99374.81;4964624;28;20062;-43
2022/09/03 06:16:02;;;;;;;70.05;27.15;;;;;;;17.20;72.71;99372.22;4968057;28;20038;-40
2022/09/03 06:18:30;;;;;;;67.80;28.30;;;;;;;17.25;73.48;99373.81;4964629;28;20185;-41
2022/09/03 06:20:59;;;;;;;63.75;26.50;;;;;;;17.28;73.22;99376.28;4965587;28;20114;-41
2022/09/03 06:23:27;;;;;;;56.45;24.73;;;;;;;17.33;73.24;99382.19;4966142;28;20867;-41
2022/09/03 06:26:14;;;;;;;57.90;25.55;;;;;;;17.31;72.99;99378.78;4964480;28;20050;-41
2022/09/03 06:28:43;;;;;;;58.58;26.25;;;;;;;17.39;72.16;99381.09;4957036;28;20058;-42
2022/09/03 06:31:12;;;;;;;57.63;24.85;;;;;;;17.42;72.44;99386.16;4966214;28;20509;-44
2022/09/03 06:33:41;;;;;;;56.80;24.98;;;;;;;17.44;71.69;99390.44;4965546;28;20055;-42
2022/09/03 06:36:10;;;;;;;57.00;25.98;;;;;;;17.52;71.69;99376.16;4965755;28;20695;-41
2022/09/03 06:38:37;;;;;;;62.05;27.65;;;;;;;17.59;72.48;99383.69;4966526;28;20514;-42
2022/09/03 06:41:07;;;;;;;59.60;25.40;;;;;;;17.69;72.52;99394.63;4962178;28;20059;-42
2022/09/03 06:43:37;;;;;;;64.70;26.80;;;;;;;17.79;72.18;99391.59;4953724;28;20059;-42
2022/09/03 06:46:08;;;;;;;58.80;26.65;;;;;;;17.88;72.31;99403.47;4963879;28;20043;-41
2022/09/03 06:48:36;;;;;;;58.90;25.95;;;;;;;17.93;72.16;99397.09;4967436;28;20175;-42
2022/09/03 06:51:06;;;;;;;58.90;26.40;;;;;;;17.92;72.41;99405.88;4962715;28;20047;-45
2022/09/03 06:53:34;;;;;;;;;;;;;;;17.77;71.96;99396.06;4967482;28;20083;-42
2022/09/03 06:56:05;;;;;;;58.03;26.35;;;;;;;17.93;72.14;99407.56;4963993;28;20009;-44
2022/09/03 06:58:36;;;;;;;65.15;27.73;;;;;;;17.98;71.76;99405.63;4962656;28;20467;-41
2022/09/03 07:01:06;;;;;;;64.47;26.08;;;;;;;18.06;72.38;99413.13;4963888;28;20113;-42
2022/09/03 07:03:34;;;;;;;66.75;28.98;;;;;;;18.17;72.67;99410.06;4978298;28;20055;-41
2022/09/03 07:06:03;;;;;;;59.95;27.33;;;;;;;18.33;72.23;99401.50;4971662;28;20047;-42
2022/09/03 07:08:32;;;;;;;65.18;27.38;;;;;;;18.58;71.89;99405.63;4975396;28;20567;-47
2022/09/03 07:11:04;;;;;;;58.08;26.30;;;;;;;18.74;71.35;99404.00;4965579;28;20046;-41
2022/09/03 07:13:32;;;;;;;61.53;26.00;;;;;;;18.80;70.91;99396.75;4965028;28;20057;-43
2022/09/03 07:18:36;;;;;;;61.17;25.38;;;;;;;18.75;71.25;99394.34;5058385;28;20403;-41
2022/09/03 07:21:06;;;;;;;57.55;26.83;;;;;;;18.73;71.34;99399.69;5018529;28;20057;-40
2022/09/03 07:23:35;;;;;;;59.83;25.85;;;;;;;18.74;71.71;99403.13;5010876;28;20117;-41
2022/09/03 07:26:04;;;;;;;58.47;26.08;;;;;;;18.76;71.63;99409.16;5027292;28;20099;-41
2022/09/03 07:28:31;;;;;;;59.90;25.65;;;;;;;18.80;71.44;99402.00;5016834;28;20077;-41
2022/09/03 07:31:04;;;;;;;59.40;26.38;;;;;;;18.84;71.25;99407.03;5016599;28;20100;-44
2022/09/03 07:33:31;;;;;;;56.80;25.80;;;;;;;18.88;71.89;99419.06;5017201;28;20068;-42
2022/09/03 07:36:08;;;;;;;54.88;24.70;;;;;;;18.94;71.64;99417.94;5009282;28;20052;-41
2022/09/03 07:38:36;;;;;;;56.30;24.95;;;;;;;19.01;70.92;99416.72;5030178;28;20045;-42
2022/09/03 07:41:05;;;;;;;55.00;24.88;;;;;;;19.08;71.68;99416.47;5013699;28;20572;-42
2022/09/03 07:43:35;;;;;;;50.95;24.75;;;;;;;19.13;71.30;99414.47;5013571;28;20061;-44
2022/09/03 07:46:02;;;;;;;49.75;24.48;;;;;;;19.21;71.24;99414.94;5017807;28;20474;-41
2022/09/03 07:48:30;;;;;;;49.15;24.08;;;;;;;19.31;71.18;99412.69;5014535;28;20038;-41
2022/09/03 07:51:02;;;;;;;51.60;24.63;;;;;;;19.41;70.82;99420.97;5016329;28;20057;-42
2022/09/03 07:53:30;;;;;;;51.40;24.45;;;;;;;19.49;70.85;99415.34;5019268;28;20141;-43
2022/09/03 07:56:02;;;;;;;55.45;25.10;;;;;;;19.51;70.33;99419.59;5020678;28;20050;-43
2022/09/03 07:58:30;;;;;;;53.58;24.48;;;;;;;19.55;70.19;99420.28;5025596;28;20440;-41
2022/09/03 08:00:58;;;;;;;53.22;24.90;;;;;;;19.58;70.53;99414.00;5021540;28;20045;-42
2022/09/03 08:03:24;;;;;;;53.97;24.70;;;;;;;19.59;70.26;99413.09;5026776;28;20056;-43
2022/09/03 08:05:51;;;;;;;53.03;23.92;;;;;;;19.63;70.26;99422.53;5022006;28;20053;-40
2022/09/03 08:08:18;;;;;;;53.50;24.77;;;;;;;19.65;70.09;99424.16;5023806;28;20050;-43
2022/09/03 08:10:45;;;;;;;48.17;22.15;;;;;;;19.73;69.73;99420.28;4998587;28;20047;-41
2022/09/03 08:13:12;;;;;;;45.30;20.88;;;;;;;19.75;69.96;99421.91;5001417;28;20220;-45
2022/09/03 08:15:41;;;;;;;42.83;21.70;;;;;;;19.78;69.88;99432.25;4999330;28;20446;-43
2022/09/03 08:18:09;;;;;;;45.58;23.35;;;;;;;19.83;69.88;99428.53;5000745;28;20516;-41
2022/09/03 08:20:37;;;;;;;43.05;19.83;;;;;;;19.84;69.96;99428.47;5000711;28;20049;-42
2022/09/03 08:23:04;;;;;;;38.22;18.50;;;;;;;19.91;69.62;99432.47;5005611;28;20042;-44
2022/09/03 08:25:32;;;;;;;37.20;17.83;;;;;;;20.00;69.05;99436.41;4998830;28;20127;-46
2022/09/03 08:27:59;;;;;;;38.95;19.08;;;;;;;20.09;68.87;99442.16;5000246;28;20108;-41
2022/09/03 08:30:26;;;;;;;35.30;17.73;;;;;;;20.17;69.20;99447.84;5003654;28;20057;-43
2022/09/03 08:32:54;;;;;;;36.72;17.95;;;;;;;20.27;68.34;99446.41;4988414;28;20092;-45
2022/09/03 08:35:21;;;;;;;38.95;19.23;;;;;;;20.39;68.39;99451.94;4986375;28;20054;-42
2022/09/03 08:37:50;;;;;;;36.67;18.85;;;;;;;20.57;68.92;99450.13;4991217;28;20053;-46
2022/09/03 08:40:23;;;;;;;32.50;17.50;;;;;;;20.87;68.18;99461.69;4985629;28;20084;-41
2022/09/03 08:45:44;;;;;;;31.08;16.48;;;;;;;21.66;67.23;99453.78;5084800;27;20761;-48
2022/09/03 08:48:20;;;;;;;27.23;16.05;;;;;;;22.12;66.74;99459.91;5078264;28;20071;-43
2022/09/03 08:50:58;;;;;;;27.17;16.10;;;;;;;22.44;65.37;99459.72;5092366;28;20048;-42
2022/09/03 08:56:13;;;;;;;25.73;15.20;;;;;;;22.62;62.46;99463.03;5024786;28;20445;-44
2022/09/03 08:58:43;;;;;;;21.20;12.38;;;;;;;22.50;62.79;99453.22;5005262;28;20508;-41
2022/09/03 09:15:26;;;;;;;20.30;14.27;;;;;;;23.33;59.98;99462.06;5051013;27;20527;-42
2022/09/03 09:23:40;;;;;;;18.75;9.32;;;;;;;23.05;60.67;99477.94;5020579;28;20927;-42
2022/09/03 09:28:50;;;;;;;12.73;8.45;;;;;;;23.07;59.89;99483.97;5067578;27;20417;-42
2022/09/03 09:31:17;;;;;;;15.85;8.23;;;;;;;23.06;60.08;99482.28;5021566;28;20504;-41
2022/09/03 09:33:45;;;;;;;14.70;7.80;;;;;;;23.25;60.03;99486.38;5039951;28;20502;-41
2022/09/03 09:36:15;;;;;;;14.90;8.45;;;;;;;23.47;59.17;99475.25;5037518;28;20120;-42
2022/09/03 09:38:45;;;;;;;15.65;8.18;;;;;;;23.94;59.77;99476.63;5038108;28;20067;-44
2022/09/03 09:44:01;;;;;;;14.85;9.70;;;;;;;25.04;56.90;99478.75;5048176;27;20406;-44
2022/09/03 09:46:35;;;;;;;15.43;9.25;;;;;;;25.34;55.27;99479.25;5002394;28;20043;-45
2022/09/03 09:49:21;;;;;;;12.88;8.40;;;;;;;25.48;54.21;99478.22;5016436;28;20362;-43
2022/09/03 09:51:48;;;;;;;13.30;8.05;;;;;;;25.84;55.00;99478.25;5000478;28;20107;-43
2022/09/03 09:54:18;;;;;;;14.27;8.73;;;;;;;26.12;53.70;99481.41;5007794;28;20045;-46
2022/09/03 09:56:57;;;;;;;11.63;9.40;;;;;;;26.42;53.13;99483.53;5002659;28;20145;-42
2022/09/03 09:59:24;;;;;;;12.98;8.73;;;;;;;26.78;51.98;99477.22;5006002;28;20406;-41
2022/09/03 10:02:08;;;;;;;13.48;9.18;;;;;;;26.95;52.46;99474.03;5005805;28;20057;-43
2022/09/03 10:04:37;;;;;;;11.00;8.85;;;;;;;27.17;52.20;99469.66;5003176;28;20046;-45
2022/09/03 10:28:28;;;;;;;11.80;7.60;;;;;;;26.83;49.77;99459.09;5043743;28;20402;-41
2022/09/03 10:33:43;;;;;;;10.95;8.27;;;;;;;27.11;47.63;99466.69;4998435;28;20396;-45
2022/09/03 10:36:20;;;;;;;8.18;5.78;;;;;;;27.10;48.34;99463.16;5019766;28;20053;-46
2022/09/03 10:39:00;;;;;;;7.60;5.55;;;;;;;27.04;48.09;99466.31;5029544;28;20101;-44
2022/09/03 10:41:40;;;;;;;6.40;4.97;;;;;;;27.02;48.30;99468.25;4996830;28;20108;-43
2022/09/03 10:44:34;;;;;;;6.43;5.22;;;;;;;27.07;49.62;99469.56;4999766;28;20050;-43
2022/09/03 10:47:31;;;;;;;6.20;4.65;;;;;;;27.25;48.54;99468.19;4992235;28;20049;-43
2022/09/03 10:53:13;;;;;;;6.00;3.97;;;;;;;27.30;47.61;99463.34;5052296;28;21108;-47
2022/09/03 10:55:51;;;;;;;6.78;4.20;;;;;;;27.18;48.52;99468.69;5019833;28;20391;-45
2022/09/03 11:01:13;;;;;;;7.85;4.32;;;;;;;27.16;48.02;99460.00;5055009;28;20393;-43
2022/09/03 11:06:24;;;;;;;8.13;6.07;;;;;;;27.17;48.14;99461.69;5028949;27;20387;-43
2022/09/03 11:11:35;;;;;;;7.95;4.00;;;;;;;27.08;47.56;99459.78;5042527;28;20417;-43
2022/09/03 11:14:11;;;;;;;7.20;4.95;;;;;;;27.03;47.92;99454.00;5004787;28;20490;-44
2022/09/03 11:16:45;;;;;;;6.53;4.80;;;;;;;27.06;47.84;99459.91;5003795;28;20104;-44
2022/09/03 11:19:17;;;;;;;5.93;4.65;;;;;;;26.99;46.92;99463.19;5005019;28;20042;-43
2022/09/03 11:21:46;;;;;;;6.00;4.53;;;;;;;26.94;48.10;99464.38;5005474;28;20112;-44
2022/09/03 11:24:23;;;;;;;8.35;4.65;;;;;;;26.92;47.40;99460.16;5004168;28;20445;-41
2022/09/03 11:27:00;;;;;;;7.20;4.30;;;;;;;26.79;48.02;99462.97;5003105;28;20058;-46
2022/09/03 11:35:27;;;;;;;5.30;4.10;;;;;;;26.24;48.25;99464.53;5035592;27;20405;-43
2022/09/03 11:40:37;;;;;;;11.38;7.25;;;;;;;26.14;47.80;99475.03;5051697;27;20943;-41
2022/09/03 11:43:25;;;;;;;9.10;4.63;;;;;;;26.07;47.93;99468.50;5024611;28;20071;-41
2022/09/03 11:46:02;;;;;;;;;;;;;;;25.92;49.04;99476.69;5022049;28;20053;-40
2022/09/03 11:54:00;;;;;;;9.90;5.55;;;;;;;26.16;49.20;99467.81;5028000;28;20412;-42
2022/09/03 11:56:29;;;;;;;8.88;5.00;;;;;;;26.14;49.08;99468.88;5007631;28;20054;-44
2022/09/03 12:01:37;;;;;;;10.98;6.57;;;;;;;26.26;49.39;99477.69;5093608;27;20380;-42
2022/09/03 12:04:06;;;;;;;8.10;5.75;;;;;;;26.36;49.05;99468.06;5052872;28;20053;-45
2022/09/03 12:07:01;;;;;;;6.75;5.28;;;;;;;26.38;48.78;99470.63;5054062;28;20057;-43
2022/09/03 12:18:17;;;;;;;8.25;6.30;;;;;;;26.78;47.73;99466.59;5059038;27;20420;-42
2022/09/03 12:20:38;;;;;;;7.97;6.50;;;;;;;26.78;48.20;99466.59;5043920;28;20049;-44
2022/09/03 12:23:05;;;;;;;11.00;6.93;;;;;;;26.75;47.94;99462.34;5043849;28;20525;-43
2022/09/03 12:25:32;;;;;;;8.82;5.72;;;;;;;26.73;47.42;99458.13;5043517;28;20037;-43
2022/09/03 12:28:02;;;;;;;6.93;5.38;;;;;;;26.63;47.11;99450.94;5045168;28;20049;-41
2022/09/03 12:30:29;;;;;;;8.50;5.55;;;;;;;26.58;47.76;99466.38;5043165;28;20045;-43
2022/09/03 12:33:06;;;;;;;8.50;4.05;;;;;;;26.52;47.31;99456.25;5043893;28;20438;-42
2022/09/03 12:35:33;;;;;;;11.43;6.22;;;;;;;26.38;47.34;99454.69;5044398;28;20075;-42
2022/09/03 12:38:24;;;;;;;7.47;5.00;;;;;;;26.42;47.79;99457.00;5043092;28;20133;-44
2022/09/03 12:40:51;;;;;;;6.50;4.18;;;;;;;26.49;47.58;99459.13;5044300;28;20621;-43
2022/09/03 12:43:38;;;;;;;6.32;4.80;;;;;;;26.58;48.06;99458.41;5043509;28;20130;-41
2022/09/03 12:46:15;;;;;;;5.72;5.13;;;;;;;26.58;47.86;99458.41;5040181;28;20132;-40
2022/09/03 12:49:06;;;;;;;6.93;5.40;;;;;;;26.52;47.22;99459.75;5045413;28;20061;-41
2022/09/03 12:52:01;;;;;;;7.22;5.20;;;;;;;26.52;47.22;99457.09;5044532;28;20124;-43
2022/09/03 12:54:33;;;;;;;8.02;5.78;;;;;;;26.47;47.14;99463.75;5042304;28;20076;-41
2022/09/03 12:57:00;;;;;;;6.25;5.10;;;;;;;26.47;46.95;99455.78;5027940;28;20048;-42
2022/09/03 12:59:31;;;;;;;5.80;4.43;;;;;;;26.38;47.08;99455.50;5041225;28;20056;-43
2022/09/03 13:02:10;;;;;;;9.57;5.07;;;;;;;26.42;47.40;99466.75;5041039;28;20175;-43
2022/09/03 13:04:40;;;;;;;5.45;4.80;;;;;;;26.47;47.55;99450.47;5041923;28;20053;-41
2022/09/03 13:07:10;;;;;;;;;;;;;;;26.31;47.57;99454.34;5041770;28;20095;-41
2022/09/03 13:09:39;;;;;;;5.97;4.47;;;;;;;26.35;47.40;99445.16;5044275;28;19979;-44
2022/09/03 13:12:20;;;;;;;6.13;3.97;;;;;;;26.31;47.36;99454.34;5043435;28;20049;-43
2022/09/03 13:14:47;;;;;;;4.30;2.65;;;;;;;26.36;46.80;99462.78;5025495;28;20265;-42
2022/09/03 13:20:38;;;;;;;4.63;2.35;;;;;;;26.46;46.98;99462.88;5047466;28;20391;-44
2022/09/03 13:39:01;;;;;;;6.40;3.53;;;;;;;26.17;47.18;99450.91;5037483;28;20401;-41
2022/09/03 13:52:41;;;;;;;6.22;3.03;;;;;;;26.12;47.58;99450.44;5064166;28;20098;-44
2022/09/03 13:55:19;;;;;;;5.80;3.92;;;;;;;26.14;47.21;99453.78;5062607;28;20049;-45
2022/09/03 14:05:53;;;;;;;7.07;4.65;;;;;;;26.08;47.49;99454.28;5040551;27;20406;-44
2022/09/03 14:17:11;;;;;;;6.90;4.60;;;;;;;26.15;46.77;99446.69;5059694;27;20381;-43
2022/09/03 14:55:30;;;;;;;8.23;4.32;;;;;;;25.77;48.00;99448.69;5050139;28;20396;-44
2022/09/03 16:03:55;;;;;;;5.38;4.65;;;;;;;24.99;47.67;99465.00;5061167;28;20912;-43
2022/09/03 16:09:35;;;;;;;4.47;3.22;;;;;;;24.54;49.15;99457.53;5030187;27;20413;-42
2022/09/03 16:12:46;;;;;;;4.13;2.88;;;;;;;24.53;49.57;99467.31;5024635;28;20050;-42
2022/09/03 16:15:38;;;;;;;6.95;4.15;;;;;;;24.54;49.52;99462.84;5006961;28;20522;-43
2022/09/03 16:26:17;;;;;;;6.50;4.88;;;;;;;24.33;50.56;99474.84;5021376;27;20410;-41
2022/09/03 16:39:36;;;;;;;5.57;5.07;;;;;;;24.34;50.85;99483.63;5025418;27;20413;-42
2022/09/03 17:06:55;;;;;;;7.43;3.65;;;;;;;23.81;53.46;99508.34;5056116;28;20401;-43
2022/09/03 17:09:33;;;;;;;;;;;;;;;23.46;54.58;99501.78;4982297;28;20113;-40
2022/09/03 17:15:09;;;;;;;8.52;5.95;;;;;;;23.75;57.11;99502.50;5076109;27;20395;-40
2022/09/03 17:34:03;;;;;;;11.90;5.85;;;;;;;22.80;58.36;99513.81;5021977;28;20421;-43
2022/09/03 17:36:36;;;;;;;10.10;5.65;;;;;;;22.80;57.73;99513.81;5004331;28;20550;-45
2022/09/03 17:49:50;;;;;;;10.25;5.93;;;;;;;22.53;59.54;99533.00;5051382;27;20394;-39
2022/09/03 18:00:11;;;;;;;10.40;5.68;;;;;;;22.30;60.15;99516.81;4993353;28;20428;-39
2022/09/03 18:02:45;;;;;;;10.00;6.22;;;;;;;22.25;59.83;99521.50;4983665;28;20530;-42
2022/09/03 18:13:20;;;;;;;12.20;6.10;;;;;;;22.06;59.92;99527.88;5137754;27;20394;-42
2022/09/03 20:23:39;;;;;;;5.72;3.15;;;;;;;20.38;57.26;99660.66;5086907;27;20748;-42
2022/09/03 20:31:35;;;;;;;6.07;3.35;;;;;;;20.42;57.46;99668.31;5117994;27;20379;-40
2022/09/03 20:45:17;;;;;;;8.27;5.03;;;;;;;20.45;57.64;99692.75;5038234;27;20395;-39
2022/09/03 20:54:00;;;;;;;5.38;3.20;;;;;;;20.07;58.18;99693.72;5044584;27;20402;-43
2022/09/03 21:04:54;;;;;;;6.72;4.80;;;;;;;20.20;57.68;99707.97;5139992;27;20398;-43
2022/09/03 21:34:08;;;;;;;4.68;2.83;;;;;;;19.66;58.53;99727.09;5080289;27;20390;-45
2022/09/03 21:36:38;;;;;;;9.05;3.38;;;;;;;19.64;58.04;99734.19;5048893;28;20041;-40